Time;durP1;ratioP1;P1;durP2;ratioP2;P2;SDS_P1;SDS_P2;PMS_P1;PMS_P2;Temp;Humidity;BMP_temperature;BMP_pressure;BME280_temperature;BME280_humidity;BME280_pressure;Samples;Min_cycle;Max_cycle;Signal;HPM_P1;HPM_P2
2023/03/13 00:00:11;;;;;;;;;;;;;;;9.91;62.21;99376.81;1089015;46;19970;-81
2023/03/13 00:01:17;;;;;;;;;;;;;;;9.92;61.91;99379.31;1088211;54;19938;-80
2023/03/13 00:02:18;;;;;;;;;;;;;;;9.94;62.13;99377.34;1090151;46;19935;-80
2023/03/13 00:03:29;;;;;;;;;;;;;;;9.94;62.06;99376.47;1089135;46;19974;-80
2023/03/13 00:04:30;;;;;;;;;;;;;;;9.98;61.98;99378.69;1088295;54;19949;-79
2023/03/13 00:05:43;;;;;;;;;;;;;;;10.01;61.73;99377.56;1088374;54;19939;-80
2023/03/13 00:06:46;;;;;;;;;;;;;;;10.00;62.03;99375.88;1088222;54;19942;-80
2023/03/13 00:07:49;;;;;;;;;;;;;;;9.94;62.06;99381.81;1088314;46;19958;-79
2023/03/13 00:08:59;;;;;;;;;;;;;;;9.93;62.12;99373.00;1089701;39;20185;-80
2023/03/13 00:10:00;;;;;;;;;;;;;;;9.87;62.32;99375.44;1087507;54;19979;-80
2023/03/13 00:11:05;;;;;;;;;;;;;;;9.82;62.47;99379.41;1087623;54;19951;-81
2023/03/13 00:12:06;;;;;;;;;;;;;;;9.77;62.89;99376.38;1087722;54;20556;-81
2023/03/13 00:13:10;;;;;;;;;;;;;;;9.80;62.96;99369.88;1087681;54;19990;-81
2023/03/13 00:14:12;;;;;;;;;;;;;;;9.78;62.83;99369.19;1087635;54;19957;-81
2023/03/13 00:15:18;;;;;;;;;;;;;;;9.78;62.88;99369.19;1087651;54;20485;-80
2023/03/13 00:16:19;;;;;;;;;;;;;;;9.77;62.87;99359.53;1087473;54;19958;-79
2023/03/13 00:17:23;;;;;;;;;;;;;;;9.77;63.07;99365.72;1087092;54;19950;-80
2023/03/13 00:18:24;;;;;;;;;;;;;;;9.78;62.91;99358.53;1087831;54;19967;-81
2023/03/13 00:19:28;;;;;;;;;;;;;;;9.74;63.30;99358.00;1087404;54;19950;-80
2023/03/13 00:20:29;;;;;;;;;;;;;;;9.74;62.99;99352.66;1087276;54;19950;-81
2023/03/13 00:21:33;;;;;;;;;;;;;;;9.70;63.21;99351.31;1087798;54;19942;-80
2023/03/13 00:22:34;;;;;;;;;;;;;;;9.72;63.01;99352.00;1087940;54;19951;-81
2023/03/13 00:23:39;;;;;;;;;;;;;;;9.67;63.59;99354.28;1087793;54;20638;-80
2023/03/13 00:24:40;;;;;;;;;;;;;;;9.65;63.37;99350.94;1093482;39;20795;-81
2023/03/13 00:25:44;;;;;;;;;;;;;;;9.62;63.56;99352.09;1087745;54;19990;-80
2023/03/13 00:26:45;;;;;;;;;;;;;;;9.62;63.80;99351.25;1087869;54;19950;-81
2023/03/13 00:27:49;;;;;;;;;;;;;;;9.60;63.89;99351.41;1088036;54;20580;-81
2023/03/13 00:28:50;;;;;;;;;;;;;;;9.64;63.88;99344.78;1087916;54;19942;-81
2023/03/13 00:29:54;;;;;;;;;;;;;;;9.57;63.71;99348.19;1087921;54;20001;-80
2023/03/13 00:31:05;;;;;;;;;;;;;;;9.61;63.84;99344.25;1087750;54;19950;-81
2023/03/13 00:32:09;;;;;;;;;;;;;;;9.59;63.69;99343.56;1087614;54;19973;-81
2023/03/13 00:33:10;;;;;;;;;;;;;;;9.55;64.22;99344.84;1087775;54;19942;-81
2023/03/13 00:34:14;;;;;;;;;;;;;;;9.57;63.80;99343.72;1087592;54;19949;-80
2023/03/13 00:35:16;;;;;;;;;;;;;;;9.55;64.07;99344.84;1087627;54;19943;-80
2023/03/13 00:36:20;;;;;;;;;;;;;;;9.55;64.28;99336.84;1088956;39;20432;-80
2023/03/13 00:37:21;;;;;;;;;;;;;;;9.54;64.35;99338.69;1087577;54;19943;-81
2023/03/13 00:38:25;;;;;;;;;;;;;;;9.55;64.29;99339.50;1087557;54;19949;-81
2023/03/13 00:39:30;;;;;;;;;;;;;;;9.51;64.60;99331.84;1087557;54;19946;-80
2023/03/13 00:40:31;;;;;;;;;;;;;;;9.59;64.10;99335.56;1087728;54;19943;-80
2023/03/13 00:41:35;;;;;;;;;;;;;;;9.63;64.00;99331.59;1087674;54;19945;-80
2023/03/13 00:42:36;;;;;;;;;;;;;;;9.67;63.80;99325.78;1087700;54;19953;-81
2023/03/13 00:43:41;;;;;;;;;;;;;;;9.65;64.25;99325.09;1087637;54;19942;-81
2023/03/13 00:44:42;;;;;;;;;;;;;;;9.73;63.85;99323.47;1087114;54;19951;-81
2023/03/13 00:45:49;;;;;;;;;;;;;;;9.70;64.21;99321.97;1086968;54;19935;-81
2023/03/13 00:46:55;;;;;;;;;;;;;;;9.76;63.59;99321.31;1087446;54;19966;-80
2023/03/13 00:47:56;;;;;;;;;;;;;;;9.79;63.67;99315.69;1087737;54;20642;-80
2023/03/13 00:49:00;;;;;;;;;;;;;;;9.78;63.73;99311.34;1087444;54;19955;-80
2023/03/13 00:50:01;;;;;;;;;;;;;;;9.79;63.88;99318.34;1087684;54;19942;-81
2023/03/13 00:51:06;;;;;;;;;;;;;;;9.80;63.65;99306.69;1088199;46;19950;-80
2023/03/13 00:52:07;;;;;;;;;;;;;;;9.80;63.78;99301.34;1087614;54;19943;-80
2023/03/13 00:53:12;;;;;;;;;;;;;;;9.81;63.93;99297.69;1088489;46;20547;-80
2023/03/13 00:54:13;;;;;;;;;;;;;;;9.88;63.44;99297.03;1087538;54;19942;-81
2023/03/13 00:55:17;;;;;;;;;;;;;;;9.88;63.40;99297.84;1087590;54;20814;-80
2023/03/13 00:56:19;;;;;;;;;;;;;;;9.92;63.54;99303.75;1087645;54;19957;-80
2023/03/13 00:57:23;;;;;;;;;;;;;;;9.90;63.70;99305.72;1087708;54;19951;-80
2023/03/13 00:58:25;;;;;;;;;;;;;;;9.89;63.67;99291.53;1087644;54;19942;-80
2023/03/13 00:59:29;;;;;;;;;;;;;;;9.90;63.49;99303.06;1087640;54;19938;-81
2023/03/13 01:00:30;;;;;;;;;;;;;;;9.91;63.60;99294.88;1087583;54;19942;-80
2023/03/13 01:01:36;;;;;;;;;;;;;;;9.90;63.42;99295.03;1087765;54;20524;-79
2023/03/13 01:02:42;;;;;;;;;;;;;;;9.98;63.29;99292.41;1088621;39;20460;-80
2023/03/13 01:03:47;;;;;;;;;;;;;;;10.00;63.29;99293.09;1087525;54;19951;-80
2023/03/13 01:04:49;;;;;;;;;;;;;;;10.08;63.23;99285.13;1087503;54;19950;-80
2023/03/13 01:05:57;;;;;;;;;;;;;;;10.13;62.86;99290.81;1087646;54;19965;-80
2023/03/13 01:07:00;;;;;;;;;;;;;;;10.08;63.05;99293.13;1087420;54;19949;-80
2023/03/13 01:08:01;;;;;;;;;;;;;;;10.15;63.02;99280.81;1087682;54;19943;-80
2023/03/13 01:09:06;;;;;;;;;;;;;;;10.13;62.79;99285.47;1087674;54;20539;-80
2023/03/13 01:10:08;;;;;;;;;;;;;;;10.11;62.76;99281.28;1088469;39;20733;-80
2023/03/13 01:11:13;;;;;;;;;;;;;;;10.08;63.20;99277.13;1087294;54;19966;-79
2023/03/13 01:12:14;;;;;;;;;;;;;;;10.12;62.83;99282.97;1087236;54;19970;-80
2023/03/13 01:13:18;;;;;;;;;;;;;;;10.09;63.09;99276.13;1087089;54;19990;-79
2023/03/13 01:14:19;;;;;;;;;;;;;;;10.13;62.95;99264.09;1087480;54;19969;-80
2023/03/13 01:15:23;;;;;;;;;;;;;;;10.13;62.80;99264.09;1087335;54;19946;-80
2023/03/13 01:16:29;;;;;;;;;;;;;;;10.16;62.83;99270.94;1087713;54;20708;-80
2023/03/13 01:17:30;;;;;;;;;;;;;;;10.15;63.04;99271.97;1088644;39;20582;-80
2023/03/13 01:18:37;;;;;;;;;;;;;;;10.15;62.69;99266.63;1087927;54;19950;-80
2023/03/13 01:19:40;;;;;;;;;;;;;;;10.19;62.66;99265.28;1087733;54;19942;-80
2023/03/13 01:20:41;;;;;;;;;;;;;;;10.23;62.58;99263.13;1087725;54;19942;-80
2023/03/13 01:21:46;;;;;;;;;;;;;;;10.23;62.42;99265.81;1087666;54;19950;-79
2023/03/13 01:22:47;;;;;;;;;;;;;;;10.26;62.46;99268.16;1087671;54;19938;-80
2023/03/13 01:23:52;;;;;;;;;;;;;;;10.25;62.46;99261.97;1087555;54;20639;-80
2023/03/13 01:24:53;;;;;;;;;;;;;;;10.32;62.22;99258.66;1087769;54;20599;-80
2023/03/13 01:25:57;;;;;;;;;;;;;;;10.27;62.44;99259.16;1089771;39;20437;-81
2023/03/13 01:27:01;;;;;;;;;;;;;;;10.26;62.21;99252.94;1087760;54;19942;-81
2023/03/13 01:28:02;;;;;;;;;;;;;;;10.32;62.04;99259.50;1088301;54;19927;-82
2023/03/13 01:29:06;;;;;;;;;;;;;;;10.33;62.26;99255.81;1088236;54;19937;-82
2023/03/13 01:30:08;;;;;;;;;;;;;;;10.33;62.07;99253.16;1088239;54;19957;-82
2023/03/13 01:31:13;;;;;;;;;;;;;;;10.33;62.16;99250.47;1087988;54;19942;-80
2023/03/13 01:33:51;;;;;;;;;;;;;;;10.38;61.92;99248.19;1088114;54;19938;-81
2023/03/13 01:34:53;;;;;;;;;;;;;;;10.40;61.70;99238.16;1088104;54;19943;-83
2023/03/13 01:36:04;;;;;;;;;;;;;;;10.46;61.65;99242.03;1088500;47;19986;-82
2023/03/13 01:37:05;;;;;;;;;;;;;;;10.45;61.58;99243.88;1088188;54;19942;-82
2023/03/13 01:38:56;;;;;;;;;;;;;;;10.47;61.74;99248.22;1088056;54;19949;-81
2023/03/13 01:39:57;;;;;;;;;;;;;;;10.51;61.28;99230.84;1092385;47;19951;-80
2023/03/13 01:41:06;;;;;;;;;;;;;;;10.51;61.38;99230.84;1090893;39;20484;-82
2023/03/13 01:42:08;;;;;;;;;;;;;;;10.52;61.36;99225.34;1087770;54;19949;-83
2023/03/13 01:43:18;;;;;;;;;;;;;;;10.54;61.33;99228.66;1087845;54;19946;-82
2023/03/13 01:48:54;;;;;;;;;;;;;;;10.60;60.88;99201.31;1087590;54;19935;-80
2023/03/13 01:49:55;;;;;;;;;;;;;;;10.58;61.12;99216.66;1087482;47;19943;-80
2023/03/13 01:51:09;;;;;;;;;;;;;;;10.59;60.87;99207.66;1087223;54;21082;-80
2023/03/13 01:52:32;;;;;;;;;;;;;;;10.58;61.06;99207.81;1087591;54;19966;-83
2023/03/13 01:53:34;;;;;;;;;;;;;;;10.64;61.16;99200.94;1087700;54;19943;-80
2023/03/13 01:54:40;;;;;;;;;;;;;;;10.66;61.21;99202.47;1087600;54;19939;-80
2023/03/13 01:55:41;;;;;;;;;;;;;;;10.68;61.06;99203.13;1088374;47;19946;-79
2023/03/13 01:56:49;;;;;;;;;;;;;;;10.66;60.66;99196.28;1087428;54;19939;-79
2023/03/13 01:57:51;;;;;;;;;;;;;;;10.65;60.85;99200.81;1087350;54;19938;-79
2023/03/13 01:59:01;;;;;;;;;;;;;;;10.66;60.84;99209.66;1087533;47;20009;-80
2023/03/13 02:00:09;;;;;;;;;;;;;;;10.68;60.71;99196.97;1088193;47;19942;-80
2023/03/13 02:02:46;;;;;;;;;;;;;;;10.60;60.82;99192.44;1087575;54;19983;-81
2023/03/13 02:05:25;;;;;;;;;;;;;;;10.66;61.00;99194.47;1088465;47;19935;-82
2023/03/13 02:06:34;;;;;;;;;;;;;;;10.60;60.86;99189.75;1087773;54;19943;-79
2023/03/13 02:07:38;;;;;;;;;;;;;;;10.66;60.83;99181.09;1087798;47;19939;-79
2023/03/13 02:08:44;;;;;;;;;;;;;;;10.68;60.81;99187.09;1087768;47;19923;-79
2023/03/13 02:09:49;;;;;;;;;;;;;;;10.72;60.90;99185.78;1088942;47;19939;-80
2023/03/13 02:10:58;;;;;;;;;;;;;;;10.73;60.50;99181.25;1088646;47;19949;-79
2023/03/13 02:12:04;;;;;;;;;;;;;;;10.70;60.63;99171.72;1087710;46;19962;-80
2023/03/13 02:13:05;;;;;;;;;;;;;;;10.69;60.78;99172.72;1088506;47;19950;-79
2023/03/13 02:14:12;;;;;;;;;;;;;;;10.75;60.74;99165.88;1087387;54;19938;-79
2023/03/13 02:15:15;;;;;;;;;;;;;;;10.68;60.58;99167.56;1087840;47;19939;-80
2023/03/13 02:16:19;;;;;;;;;;;;;;;10.68;60.51;99168.38;1087959;54;19943;-80
2023/03/13 02:17:20;;;;;;;;;;;;;;;10.64;60.63;99177.75;1089410;47;19939;-80
2023/03/13 02:18:24;;;;;;;;;;;;;;;10.63;60.70;99169.91;1088438;47;19939;-80
2023/03/13 02:19:28;;;;;;;;;;;;;;;10.70;60.71;99166.38;1088975;46;19947;-79
2023/03/13 02:20:34;;;;;;;;;;;;;;;10.68;60.77;99165.72;1088505;46;19927;-80
2023/03/13 02:21:40;;;;;;;;;;;;;;;10.75;60.42;99161.38;1088345;54;19974;-80
2023/03/13 02:22:47;;;;;;;;;;;;;;;10.71;60.46;99165.38;1088272;54;19953;-80
2023/03/13 02:23:53;;;;;;;;;;;;;;;10.74;60.44;99165.06;1088316;54;19946;-79
2023/03/13 02:25:00;;;;;;;;;;;;;;;10.74;60.35;99164.19;1088272;46;19945;-80
2023/03/13 02:26:05;;;;;;;;;;;;;;;10.69;60.28;99164.72;1089036;46;19943;-81
2023/03/13 02:27:09;;;;;;;;;;;;;;;10.73;60.45;99162.53;1087700;54;19946;-79
2023/03/13 02:28:11;;;;;;;;;;;;;;;10.71;60.44;99160.03;1089865;46;19939;-79
2023/03/13 02:29:17;;;;;;;;;;;;;;;10.79;60.17;99161.88;1087659;54;19966;-79
2023/03/13 02:30:18;;;;;;;;;;;;;;;10.76;60.40;99149.69;1087737;54;19998;-80
2023/03/13 02:31:22;;;;;;;;;;;;;;;10.79;60.19;99155.69;1088126;46;19950;-80
2023/03/13 02:32:24;;;;;;;;;;;;;;;10.81;60.20;99151.00;1087771;54;19930;-79
2023/03/13 02:33:29;;;;;;;;;;;;;;;10.83;59.98;99146.34;1088055;54;19938;-80
2023/03/13 02:34:33;;;;;;;;;;;;;;;10.85;60.15;99155.03;1088332;46;19966;-79
2023/03/13 02:35:38;;;;;;;;;;;;;;;10.80;60.07;99146.66;1087614;54;19942;-79
2023/03/13 02:36:40;;;;;;;;;;;;;;;10.84;60.24;99156.03;1087748;54;19942;-79
2023/03/13 02:37:44;;;;;;;;;;;;;;;10.81;60.16;99143.84;1087655;54;19946;-80
2023/03/13 02:38:53;;;;;;;;;;;;;;;10.85;60.03;99147.84;1089064;46;19950;-79
2023/03/13 02:39:55;;;;;;;;;;;;;;;10.90;59.76;99142.81;1089605;46;19970;-80
2023/03/13 02:42:23;;;;;;;;;;;;;;;10.95;59.78;99128.94;1087789;46;19950;-80
2023/03/13 02:43:30;;;;;;;;;;;;;;;11.00;59.65;99125.75;1088678;46;19949;-79
2023/03/13 02:44:39;;;;;;;;;;;;;;;10.93;60.15;99125.59;1089103;46;19938;-79
2023/03/13 02:45:40;;;;;;;;;;;;;;;10.96;59.82;99125.25;1087970;54;19939;-80
2023/03/13 02:46:49;;;;;;;;;;;;;;;10.95;60.22;99128.94;1088046;54;19943;-80
2023/03/13 02:47:50;;;;;;;;;;;;;;;10.95;60.47;99123.59;1088372;46;20006;-79
2023/03/13 02:48:55;;;;;;;;;;;;;;;10.92;60.49;99123.94;1088152;46;19942;-80
2023/03/13 02:49:56;;;;;;;;;;;;;;;10.90;60.55;99121.44;1088046;46;20214;-80
2023/03/13 02:50:57;;;;;;;;;;;;;;;10.92;60.56;99123.94;1087891;54;19942;-80
2023/03/13 02:52:06;;;;;;;;;;;;;;;10.91;60.63;99111.56;1088495;46;19939;-80
2023/03/13 02:53:08;;;;;;;;;;;;;;;10.84;61.16;99124.75;1089113;46;19948;-80
2023/03/13 02:54:13;;;;;;;;;;;;;;;10.87;61.16;99115.56;1087811;54;19950;-80
2023/03/13 02:55:21;;;;;;;;;;;;;;;10.87;61.18;99115.56;1087910;54;19943;-80
2023/03/13 02:56:27;;;;;;;;;;;;;;;10.86;61.09;99114.75;1088091;46;19982;-80
2023/03/13 02:57:32;;;;;;;;;;;;;;;10.87;61.21;99111.06;1087689;54;19939;-81
2023/03/13 02:58:40;;;;;;;;;;;;;;;10.89;61.57;99121.59;1087835;46;19927;-80
2023/03/13 02:59:42;;;;;;;;;;;;;;;10.85;61.38;99113.06;1087522;54;19943;-79
2023/03/13 03:00:53;;;;;;;;;;;;;;;10.89;61.58;99114.41;1087711;54;19943;-81
2023/03/13 03:01:54;;;;;;;;;;;;;;;10.88;61.48;99110.06;1088021;54;19955;-79
2023/03/13 03:02:58;;;;;;;;;;;;;;;10.82;61.87;99112.56;1087811;54;20018;-80
2023/03/13 03:03:59;;;;;;;;;;;;;;;10.80;62.26;99109.22;1087903;54;19942;-79
2023/03/13 03:05:03;;;;;;;;;;;;;;;10.71;62.43;99101.22;1088984;46;19939;-80
2023/03/13 03:06:05;;;;;;;;;;;;;;;10.71;62.73;99106.56;1087744;47;19949;-81
2023/03/13 03:07:09;;;;;;;;;;;;;;;10.64;63.18;99099.38;1087524;46;19949;-80
2023/03/13 03:08:18;;;;;;;;;;;;;;;10.68;62.91;99095.38;1087573;54;19962;-81
2023/03/13 03:09:30;;;;;;;;;;;;;;;10.70;63.10;99104.91;1088354;46;19942;-82
2023/03/13 03:10:40;;;;;;;;;;;;;;;10.69;63.04;99097.88;1087952;54;19946;-81
2023/03/13 03:11:44;;;;;;;;;;;;;;;10.66;63.05;99097.38;1087798;54;19950;-81
2023/03/13 03:12:47;;;;;;;;;;;;;;;10.70;62.88;99104.91;1088199;46;19922;-81
2023/03/13 03:13:51;;;;;;;;;;;;;;;10.66;63.11;99098.25;1088740;46;19939;-79
2023/03/13 03:14:52;;;;;;;;;;;;;;;10.65;63.17;99096.56;1087801;46;19955;-80
2023/03/13 03:17:13;;;;;;;;;;;;;;;10.71;63.18;99100.41;1088503;46;19942;-80
2023/03/13 03:18:14;;;;;;;;;;;;;;;10.68;63.42;99100.72;1087437;54;19939;-80
2023/03/13 03:19:19;;;;;;;;;;;;;;;10.65;63.23;99103.72;1087333;54;19938;-80
2023/03/13 03:20:20;;;;;;;;;;;;;;;10.62;63.42;99107.59;1087415;54;20210;-80
2023/03/13 03:21:23;;;;;;;;;;;;;;;10.56;63.72;99105.59;1088667;46;19962;-79
2023/03/13 03:22:25;;;;;;;;;;;;;;;10.60;63.44;99110.44;1087644;54;19946;-80
2023/03/13 03:23:28;;;;;;;;;;;;;;;10.67;63.35;99105.25;1087785;46;19938;-79
2023/03/13 03:24:30;;;;;;;;;;;;;;;10.64;63.34;99102.91;1087757;54;19938;-80
2023/03/13 03:25:33;;;;;;;;;;;;;;;10.57;63.86;99110.75;1087792;47;19992;-79
2023/03/13 03:26:35;;;;;;;;;;;;;;;10.56;64.13;99111.75;1087686;54;19966;-80
2023/03/13 03:27:39;;;;;;;;;;;;;;;10.57;64.31;99099.25;1088457;46;19946;-79
2023/03/13 03:28:42;;;;;;;;;;;;;;;10.60;64.02;99105.09;1087678;54;19946;-79
2023/03/13 03:29:46;;;;;;;;;;;;;;;10.65;63.97;99091.22;1087705;46;19942;-80
2023/03/13 03:30:47;;;;;;;;;;;;;;;10.65;63.88;99085.03;1088699;46;19974;-79
2023/03/13 03:31:51;;;;;;;;;;;;;;;10.69;63.77;99078.34;1089167;39;20180;-79
2023/03/13 03:32:52;;;;;;;;;;;;;;;10.73;63.67;99079.66;1088304;46;19939;-79
2023/03/13 03:33:56;;;;;;;;;;;;;;;10.71;63.67;99074.50;1087734;54;19943;-79
2023/03/13 03:34:57;;;;;;;;;;;;;;;10.68;63.77;99076.69;1087734;54;19965;-79
2023/03/13 03:36:02;;;;;;;;;;;;;;;10.72;63.61;99076.16;1089801;39;20725;-79
2023/03/13 03:37:03;;;;;;;;;;;;;;;10.67;63.81;99077.69;1091745;39;20220;-79
2023/03/13 03:38:07;;;;;;;;;;;;;;;10.71;63.47;99076.34;1087602;54;19989;-79
2023/03/13 03:39:08;;;;;;;;;;;;;;;10.65;64.04;99071.66;1087650;54;19990;-78
2023/03/13 03:40:13;;;;;;;;;;;;;;;10.69;63.77;99060.47;1088516;39;20610;-79
2023/03/13 03:41:14;;;;;;;;;;;;;;;10.69;63.76;99065.81;1087556;54;19966;-79
2023/03/13 03:42:18;;;;;;;;;;;;;;;10.69;63.94;99059.63;1087627;54;19942;-79
2023/03/13 03:43:19;;;;;;;;;;;;;;;10.63;64.23;99054.97;1087630;54;19966;-80
2023/03/13 03:44:25;;;;;;;;;;;;;;;10.65;64.31;99053.81;1087679;54;19954;-79
2023/03/13 03:45:26;;;;;;;;;;;;;;;10.61;64.25;99061.31;1087632;54;19942;-79
2023/03/13 03:46:30;;;;;;;;;;;;;;;10.64;64.40;99060.16;1087593;54;19950;-79
2023/03/13 03:47:31;;;;;;;;;;;;;;;10.61;64.54;99063.16;1087634;54;19965;-79
2023/03/13 03:48:35;;;;;;;;;;;;;;;10.61;64.05;99057.81;1087658;54;19943;-80
2023/03/13 03:49:36;;;;;;;;;;;;;;;10.64;64.19;99049.47;1087743;54;19967;-80
2023/03/13 03:50:40;;;;;;;;;;;;;;;10.63;64.43;99050.47;1087537;54;19943;-79
2023/03/13 03:51:41;;;;;;;;;;;;;;;10.69;64.32;99052.44;1087577;54;19942;-79
2023/03/13 03:52:44;;;;;;;;;;;;;;;10.71;63.96;99042.41;1087581;54;19949;-79
2023/03/13 03:53:46;;;;;;;;;;;;;;;10.70;64.12;99054.13;1087608;54;19946;-79
2023/03/13 03:54:49;;;;;;;;;;;;;;;10.75;63.97;99048.25;1090114;39;20483;-80
2023/03/13 03:55:51;;;;;;;;;;;;;;;10.69;64.24;99048.94;1087561;54;19949;-79
2023/03/13 03:56:54;;;;;;;;;;;;;;;10.69;64.33;99044.41;1087500;54;19938;-78
2023/03/13 04:07:35;;;;;;;;;;;;;;;10.81;64.57;99030.69;1087645;54;19927;-80
2023/03/13 04:09:04;;;;;;;;;;;;;;;10.86;64.18;99023.84;1088493;46;19939;-79
2023/03/13 04:10:11;;;;;;;;;;;;;;;10.85;64.56;99022.16;1087759;54;19939;-79
2023/03/13 04:11:12;;;;;;;;;;;;;;;10.91;64.36;99026.81;1090527;46;19950;-79
2023/03/13 04:12:23;;;;;;;;;;;;;;;10.92;64.13;99016.97;1094186;39;20072;-81
2023/03/13 04:13:24;;;;;;;;;;;;;;;10.93;63.92;99015.97;1087818;46;19977;-80
2023/03/13 04:14:28;;;;;;;;;;;;;;;10.92;64.10;99009.78;1088034;54;19939;-80
2023/03/13 04:15:29;;;;;;;;;;;;;;;10.92;64.08;99006.28;1090367;46;19922;-79
2023/03/13 04:16:33;;;;;;;;;;;;;;;10.88;64.31;99011.13;1088226;54;20003;-80
2023/03/13 04:17:35;;;;;;;;;;;;;;;10.95;64.38;99010.44;1088402;47;19946;-81
2023/03/13 04:18:40;;;;;;;;;;;;;;;11.01;63.82;99007.06;1090502;46;19939;-80
2023/03/13 04:19:42;;;;;;;;;;;;;;;11.02;63.73;99012.25;1089057;46;19934;-81
2023/03/13 04:20:45;;;;;;;;;;;;;;;11.04;64.01;99007.59;1089802;46;19943;-80
2023/03/13 04:21:48;;;;;;;;;;;;;;;11.07;63.85;99014.41;1088758;46;19939;-81
2023/03/13 04:22:52;;;;;;;;;;;;;;;11.05;64.28;99003.88;1088123;54;19931;-81
2023/03/13 04:23:53;;;;;;;;;;;;;;;11.05;64.01;99005.72;1088049;54;19926;-81
2023/03/13 04:26:50;;;;;;;;;;;;;;;11.07;63.97;98998.38;1088195;46;19926;-80
2023/03/13 04:27:52;;;;;;;;;;;;;;;11.11;64.08;99002.34;1088179;46;19935;-80
2023/03/13 04:28:55;;;;;;;;;;;;;;;11.16;64.17;99000.00;1087787;54;19943;-79
2023/03/13 04:29:56;;;;;;;;;;;;;;;11.17;64.30;99003.50;1087578;54;19942;-79
2023/03/13 04:31:01;;;;;;;;;;;;;;;11.21;64.04;99005.66;1087566;54;19994;-80
2023/03/13 04:32:06;;;;;;;;;;;;;;;11.19;64.10;99013.00;1090319;46;19977;-79
2023/03/13 04:33:10;;;;;;;;;;;;;;;11.22;64.44;99014.53;1088181;46;19972;-80
2023/03/13 04:34:11;;;;;;;;;;;;;;;11.19;64.41;99020.22;1087558;54;19962;-78
2023/03/13 04:35:15;;;;;;;;;;;;;;;11.25;64.11;99014.16;1087570;46;19999;-79
2023/03/13 04:36:18;;;;;;;;;;;;;;;11.26;64.51;99010.47;1087654;54;19939;-80
2023/03/13 04:37:22;;;;;;;;;;;;;;;11.21;64.47;99012.84;1087742;46;19943;-79
2023/03/13 04:38:24;;;;;;;;;;;;;;;11.28;64.29;99016.50;1087933;46;19935;-80
2023/03/13 04:39:28;;;;;;;;;;;;;;;11.33;64.59;99015.97;1088360;46;19949;-80
2023/03/13 04:40:32;;;;;;;;;;;;;;;11.30;64.56;99025.19;1087817;54;19966;-79
2023/03/13 04:43:21;;;;;;;;;;;;;;;11.39;64.63;99023.28;1087937;54;19946;-80
2023/03/13 04:44:24;;;;;;;;;;;;;;;11.36;64.64;99019.13;1087846;54;19946;-80
2023/03/13 04:45:28;;;;;;;;;;;;;;;11.42;64.89;99011.41;1087732;54;19958;-79
2023/03/13 04:46:34;;;;;;;;;;;;;;;11.48;64.50;99026.75;1087925;54;19950;-79
2023/03/13 04:47:38;;;;;;;;;;;;;;;11.47;64.48;99014.38;1088358;39;20191;-79
2023/03/13 04:48:50;;;;;;;;;;;;;;;11.44;64.89;99020.09;1087679;54;19966;-80
2023/03/13 04:49:54;;;;;;;;;;;;;;;11.42;65.38;99011.41;1087835;54;19954;-79
2023/03/13 04:50:58;;;;;;;;;;;;;;;11.40;65.68;99022.28;1088286;46;19938;-79
2023/03/13 04:51:59;;;;;;;;;;;;;;;11.46;65.37;99026.09;1089569;46;19954;-80
2023/03/13 04:53:03;;;;;;;;;;;;;;;11.51;65.14;99021.06;1087536;54;19954;-79
2023/03/13 04:54:04;;;;;;;;;;;;;;;11.51;65.45;99023.75;1088369;46;19943;-80
2023/03/13 04:55:09;;;;;;;;;;;;;;;11.50;65.43;99024.75;1087746;54;19939;-80
2023/03/13 04:56:11;;;;;;;;;;;;;;;11.46;65.52;99020.75;1088269;46;19966;-79
2023/03/13 04:57:15;;;;;;;;;;;;;;;11.50;65.66;99030.09;1088142;46;19923;-80
2023/03/13 04:58:19;;;;;;;;;;;;;;;11.49;65.92;99026.56;1087688;54;19939;-79
2023/03/13 04:59:23;;;;;;;;;;;;;;;11.54;65.60;99026.06;1088618;39;20182;-80
2023/03/13 05:00:24;;;;;;;;;;;;;;;11.55;65.87;99022.38;1088636;39;20574;-79
2023/03/13 05:01:28;;;;;;;;;;;;;;;11.55;65.93;99017.00;1087846;54;19953;-79
2023/03/13 05:02:29;;;;;;;;;;;;;;;11.54;66.06;99015.34;1089881;46;19969;-79
2023/03/13 05:03:40;;;;;;;;;;;;;;;11.60;65.55;99013.81;1087754;54;19942;-80
2023/03/13 05:20:26;;;;;;;;;;;;;;;11.70;67.06;98982.28;1088382;46;19935;-81
2023/03/13 05:22:06;;;;;;;;;;;;;;;11.73;67.08;98981.94;1088167;47;19969;-79
2023/03/13 05:23:54;;;;;;;;;;;;;;;11.73;67.31;98978.41;1087753;47;19938;-81
2023/03/13 05:25:23;;;;;;;;;;;;;;;;;;;;;
2023/03/13 05:27:52;;;;;;;;;;;;;;;11.69;68.08;98977.94;1089025;46;19942;-79
2023/03/13 05:28:53;;;;;;;;;;;;;;;11.72;68.17;98982.94;1088039;46;19943;-79
2023/03/13 05:29:57;;;;;;;;;;;;;;;11.78;67.62;98987.59;1087465;54;19938;-80
2023/03/13 05:31:01;;;;;;;;;;;;;;;11.72;68.30;98985.63;1088776;46;19950;-79
2023/03/13 05:32:04;;;;;;;;;;;;;;;11.78;67.92;98981.41;1087818;54;19938;-80
2023/03/13 05:33:09;;;;;;;;;;;;;;;11.73;68.28;98986.44;1088470;47;19939;-80
2023/03/13 05:34:11;;;;;;;;;;;;;;;11.73;68.41;98983.78;1087809;54;19967;-81
2023/03/13 05:35:14;;;;;;;;;;;;;;;11.80;68.04;98979.38;1087650;54;19935;-79
2023/03/13 05:36:34;;;;;;;;;;;;;;;11.84;68.19;98975.31;1087538;54;19949;-80
2023/03/13 05:37:38;;;;;;;;;;;;;;;11.83;68.04;98973.66;1087588;54;19947;-79
2023/03/13 05:38:45;;;;;;;;;;;;;;;11.81;68.33;98978.34;1089133;47;19936;-81
2023/03/13 05:39:46;;;;;;;;;;;;;;;11.84;68.36;98976.19;1087592;54;19946;-79
2023/03/13 05:40:50;;;;;;;;;;;;;;;11.77;69.19;98982.41;1087328;54;19958;-78
2023/03/13 05:41:51;;;;;;;;;;;;;;;11.83;69.43;98976.34;1087544;54;19981;-79
2023/03/13 05:42:55;;;;;;;;;;;;;;;11.81;70.15;98973.00;1087422;54;20014;-79
2023/03/13 05:43:56;;;;;;;;;;;;;;;11.81;70.40;98973.00;1087445;54;19943;-79
2023/03/13 05:45:00;;;;;;;;;;;;;;;11.79;71.39;98969.69;1088161;47;19947;-81
2023/03/13 05:46:01;;;;;;;;;;;;;;;11.79;71.58;98980.41;1087644;54;19954;-80
2023/03/13 05:47:05;;;;;;;;;;;;;;;11.74;72.44;98982.75;1087579;54;19945;-80
2023/03/13 05:48:11;;;;;;;;;;;;;;;11.81;71.66;98979.19;1087583;54;19938;-80
2023/03/13 05:49:15;;;;;;;;;;;;;;;11.84;72.17;98983.34;1087640;54;19942;-80
2023/03/13 05:50:16;;;;;;;;;;;;;;;11.77;72.81;98979.75;1087383;54;19943;-78
2023/03/13 05:51:20;;;;;;;;;;;;;;;11.81;72.70;98978.34;1087733;47;19978;-79
2023/03/13 05:52:22;;;;;;;;;;;;;;;11.77;72.72;98977.06;1087517;54;19939;-79
2023/03/13 05:53:39;;;;;;;;;;;;;;;11.74;73.32;98980.09;1088378;47;19946;-80
2023/03/13 05:55:14;;;;;;;;;;;;;;;11.80;73.02;98971.34;1088133;54;19957;-80
2023/03/13 05:56:15;;;;;;;;;;;;;;;11.80;73.24;98966.81;1088421;46;19942;-79
2023/03/13 05:57:19;;;;;;;;;;;;;;;11.75;73.71;98974.56;1088793;46;19944;-79
2023/03/13 05:58:25;;;;;;;;;;;;;;;11.84;73.13;98967.28;1088196;46;19966;-80
2023/03/13 05:59:31;;;;;;;;;;;;;;;11.83;73.11;98962.94;1088050;54;19995;-80
2023/03/13 06:00:38;;;;;;;;;;;;;;;11.84;73.11;98967.28;1088126;46;19927;-81
2023/03/13 06:01:56;;;;;;;;;;;;;;;11.91;72.88;98962.88;1088803;46;19950;-80
2023/03/13 06:02:58;;;;;;;;;;;;;;;11.90;72.99;98965.75;1088155;46;19942;-81
2023/03/13 06:05:34;;;;;;;;;;;;;;;11.88;73.07;98968.63;1088195;54;20710;-79
2023/03/13 06:06:50;;;;;;;;;;;;;;;11.97;72.49;98969.34;1088245;54;19933;-81
2023/03/13 06:09:30;;;;;;;;;;;;;;;12.00;72.33;98969.84;1088071;54;20913;-80
2023/03/13 06:10:34;;;;;;;;;;;;;;;11.97;72.71;98967.56;1088162;54;19950;-81
2023/03/13 06:11:38;;;;;;;;;;;;;;;11.97;72.49;98964.88;1088358;46;19942;-80
2023/03/13 06:13:19;;;;;;;;;;;;;;;12.01;72.80;98958.13;1088419;54;19943;-81
2023/03/13 06:14:44;;;;;;;;;;;;;;;12.04;72.56;98966.84;1090328;46;19969;-79
2023/03/13 06:15:49;;;;;;;;;;;;;;;12.07;72.70;98967.31;1088508;46;19974;-80
2023/03/13 06:18:11;;;;;;;;;;;;;;;12.04;72.92;98962.31;1088005;54;19939;-81
2023/03/13 06:19:27;;;;;;;;;;;;;;;12.11;72.59;98963.25;1088183;54;19934;-80
2023/03/13 06:20:31;;;;;;;;;;;;;;;12.09;73.06;98959.09;1087808;54;19942;-81
2023/03/13 06:21:32;;;;;;;;;;;;;;;12.12;73.06;98964.06;1087870;54;19947;-80
2023/03/13 06:22:36;;;;;;;;;;;;;;;12.09;73.01;98959.09;1087937;54;19949;-79
2023/03/13 06:23:44;;;;;;;;;;;;;;;12.14;73.19;98959.38;1087843;54;19942;-79
2023/03/13 06:24:56;;;;;;;;;;;;;;;12.14;73.20;98956.69;1089176;46;19934;-79
2023/03/13 06:26:12;;;;;;;;;;;;;;;12.17;72.34;98951.00;1088570;54;19950;-80